sensor_id;sensor_type;location;lat;lon;timestamp;P1;durP1;ratioP1;P2;durP2;ratioP2
3769;SDS011;1900;48.890;9.190;2022-09-13T00:01:14;8.73;;;3.80;;
3769;SDS011;1900;48.890;9.190;2022-09-13T00:03:40;4.83;;;3.60;;
3769;SDS011;1900;48.890;9.190;2022-09-13T00:06:06;6.13;;;3.20;;
3769;SDS011;1900;48.890;9.190;2022-09-13T00:08:36;4.27;;;3.47;;
3769;SDS011;1900;48.890;9.190;2022-09-13T00:11:02;6.63;;;3.40;;
3769;SDS011;1900;48.890;9.190;2022-09-13T00:13:28;5.07;;;3.40;;
3769;SDS011;1900;48.890;9.190;2022-09-13T00:15:53;6.40;;;3.70;;
3769;SDS011;1900;48.890;9.190;2022-09-13T00:18:19;4.70;;;3.47;;
3769;SDS011;1900;48.890;9.190;2022-09-13T00:20:45;4.90;;;3.20;;
3769;SDS011;1900;48.890;9.190;2022-09-13T00:23:10;9.93;;;3.33;;
3769;SDS011;1900;48.890;9.190;2022-09-13T00:25:36;5.23;;;3.70;;
3769;SDS011;1900;48.890;9.190;2022-09-13T00:28:03;3.00;;;2.70;;
3769;SDS011;1900;48.890;9.190;2022-09-13T00:30:29;4.57;;;3.30;;
3769;SDS011;1900;48.890;9.190;2022-09-13T00:32:55;4.60;;;3.10;;
3769;SDS011;1900;48.890;9.190;2022-09-13T00:35:21;4.93;;;3.00;;
3769;SDS011;1900;48.890;9.190;2022-09-13T00:37:48;6.90;;;3.90;;
3769;SDS011;1900;48.890;9.190;2022-09-13T00:40:14;4.13;;;3.20;;
3769;SDS011;1900;48.890;9.190;2022-09-13T00:42:40;4.73;;;3.10;;
3769;SDS011;1900;48.890;9.190;2022-09-13T00:50:38;5.00;;;3.53;;
3769;SDS011;1900;48.890;9.190;2022-09-13T00:53:11;6.73;;;3.50;;
3769;SDS011;1900;48.890;9.190;2022-09-13T00:55:43;4.00;;;3.17;;
3769;SDS011;1900;48.890;9.190;2022-09-13T00:58:18;5.80;;;3.37;;
3769;SDS011;1900;48.890;9.190;2022-09-13T01:00:46;5.67;;;3.77;;
3769;SDS011;1900;48.890;9.190;2022-09-13T01:03:12;5.53;;;3.70;;
3769;SDS011;1900;48.890;9.190;2022-09-13T01:05:44;3.73;;;3.33;;
3769;SDS011;1900;48.890;9.190;2022-09-13T01:08:14;6.53;;;3.90;;
3769;SDS011;1900;48.890;9.190;2022-09-13T01:10:47;7.00;;;3.97;;
3769;SDS011;1900;48.890;9.190;2022-09-13T01:13:16;6.03;;;3.93;;
3769;SDS011;1900;48.890;9.190;2022-09-13T01:15:45;10.30;;;3.57;;
3769;SDS011;1900;48.890;9.190;2022-09-13T01:18:10;6.73;;;3.70;;
3769;SDS011;1900;48.890;9.190;2022-09-13T01:20:53;9.23;;;3.67;;
3769;SDS011;1900;48.890;9.190;2022-09-13T01:27:10;6.80;;;4.20;;
3769;SDS011;1900;48.890;9.190;2022-09-13T01:40:07;6.73;;;4.37;;
3769;SDS011;1900;48.890;9.190;2022-09-13T01:50:46;8.53;;;4.83;;
3769;SDS011;1900;48.890;9.190;2022-09-13T01:55:58;6.80;;;4.00;;
3769;SDS011;1900;48.890;9.190;2022-09-13T01:58:38;7.70;;;4.83;;
3769;SDS011;1900;48.890;9.190;2022-09-13T02:01:17;5.70;;;4.03;;
3769;SDS011;1900;48.890;9.190;2022-09-13T02:06:41;4.47;;;3.47;;
3769;SDS011;1900;48.890;9.190;2022-09-13T02:09:14;8.17;;;4.67;;
3769;SDS011;1900;48.890;9.190;2022-09-13T02:11:46;8.10;;;4.13;;
3769;SDS011;1900;48.890;9.190;2022-09-13T02:14:20;9.23;;;4.13;;
3769;SDS011;1900;48.890;9.190;2022-09-13T02:22:13;10.60;;;4.23;;
3769;SDS011;1900;48.890;9.190;2022-09-13T02:24:43;6.03;;;4.73;;
3769;SDS011;1900;48.890;9.190;2022-09-13T02:27:13;7.80;;;4.90;;
3769;SDS011;1900;48.890;9.190;2022-09-13T02:29:44;11.27;;;6.83;;
3769;SDS011;1900;48.890;9.190;2022-09-13T02:32:21;6.83;;;5.33;;
3769;SDS011;1900;48.890;9.190;2022-09-13T02:35:11;8.33;;;5.00;;
3769;SDS011;1900;48.890;9.190;2022-09-13T02:38:06;11.80;;;5.47;;
3769;SDS011;1900;48.890;9.190;2022-09-13T02:40:38;14.00;;;5.10;;
3769;SDS011;1900;48.890;9.190;2022-09-13T02:43:14;7.77;;;5.03;;
3769;SDS011;1900;48.890;9.190;2022-09-13T02:45:52;8.33;;;5.13;;
3769;SDS011;1900;48.890;9.190;2022-09-13T02:48:35;6.10;;;5.10;;
3769;SDS011;1900;48.890;9.190;2022-09-13T02:51:34;15.33;;;5.97;;
3769;SDS011;1900;48.890;9.190;2022-09-13T02:56:57;6.50;;;5.20;;
3769;SDS011;1900;48.890;9.190;2022-09-13T02:59:29;11.03;;;5.43;;
3769;SDS011;1900;48.890;9.190;2022-09-13T03:02:08;6.20;;;5.00;;
3769;SDS011;1900;48.890;9.190;2022-09-13T03:04:39;9.07;;;5.13;;
3769;SDS011;1900;48.890;9.190;2022-09-13T03:07:08;8.53;;;5.83;;
3769;SDS011;1900;48.890;9.190;2022-09-13T03:09:35;9.30;;;4.80;;
3769;SDS011;1900;48.890;9.190;2022-09-13T03:17:38;8.00;;;5.17;;
3769;SDS011;1900;48.890;9.190;2022-09-13T03:28:51;7.53;;;4.97;;
3769;SDS011;1900;48.890;9.190;2022-09-13T03:40:02;7.20;;;4.73;;
3769;SDS011;1900;48.890;9.190;2022-09-13T03:42:37;8.33;;;5.27;;
3769;SDS011;1900;48.890;9.190;2022-09-13T03:45:10;8.53;;;5.07;;
3769;SDS011;1900;48.890;9.190;2022-09-13T03:47:39;9.50;;;5.37;;
3769;SDS011;1900;48.890;9.190;2022-09-13T03:50:07;15.97;;;5.70;;
3769;SDS011;1900;48.890;9.190;2022-09-13T03:52:34;8.10;;;5.77;;
3769;SDS011;1900;48.890;9.190;2022-09-13T03:55:00;9.20;;;5.80;;
3769;SDS011;1900;48.890;9.190;2022-09-13T03:57:26;8.37;;;5.10;;
3769;SDS011;1900;48.890;9.190;2022-09-13T03:59:53;10.47;;;5.07;;
3769;SDS011;1900;48.890;9.190;2022-09-13T04:02:21;9.90;;;5.90;;
3769;SDS011;1900;48.890;9.190;2022-09-13T04:04:48;12.87;;;5.30;;
3769;SDS011;1900;48.890;9.190;2022-09-13T04:07:16;9.50;;;5.97;;
3769;SDS011;1900;48.890;9.190;2022-09-13T04:09:43;13.23;;;5.20;;
3769;SDS011;1900;48.890;9.190;2022-09-13T04:12:10;8.60;;;5.90;;
3769;SDS011;1900;48.890;9.190;2022-09-13T04:14:37;7.10;;;4.93;;
3769;SDS011;1900;48.890;9.190;2022-09-13T04:17:04;7.80;;;4.83;;
3769;SDS011;1900;48.890;9.190;2022-09-13T04:19:29;10.73;;;5.20;;
3769;SDS011;1900;48.890;9.190;2022-09-13T04:21:56;8.60;;;5.57;;
3769;SDS011;1900;48.890;9.190;2022-09-13T04:24:23;11.93;;;5.90;;
3769;SDS011;1900;48.890;9.190;2022-09-13T04:26:53;9.63;;;4.97;;
3769;SDS011;1900;48.890;9.190;2022-09-13T04:29:20;10.93;;;4.90;;
3769;SDS011;1900;48.890;9.190;2022-09-13T04:31:47;10.23;;;5.03;;
3769;SDS011;1900;48.890;9.190;2022-09-13T04:34:13;10.00;;;5.37;;
3769;SDS011;1900;48.890;9.190;2022-09-13T04:36:39;6.50;;;5.40;;
3769;SDS011;1900;48.890;9.190;2022-09-13T04:39:05;11.13;;;5.10;;
3769;SDS011;1900;48.890;9.190;2022-09-13T04:41:31;13.03;;;4.90;;
3769;SDS011;1900;48.890;9.190;2022-09-13T04:43:59;6.17;;;4.57;;
3769;SDS011;1900;48.890;9.190;2022-09-13T04:46:25;13.60;;;5.23;;
3769;SDS011;1900;48.890;9.190;2022-09-13T04:48:51;7.27;;;4.57;;
3769;SDS011;1900;48.890;9.190;2022-09-13T04:51:17;8.70;;;4.90;;
3769;SDS011;1900;48.890;9.190;2022-09-13T04:53:44;6.73;;;4.60;;
3769;SDS011;1900;48.890;9.190;2022-09-13T04:56:10;13.43;;;5.70;;
3769;SDS011;1900;48.890;9.190;2022-09-13T04:58:38;7.30;;;4.77;;
3769;SDS011;1900;48.890;9.190;2022-09-13T05:01:05;8.90;;;5.10;;
3769;SDS011;1900;48.890;9.190;2022-09-13T05:03:33;5.67;;;4.53;;
3769;SDS011;1900;48.890;9.190;2022-09-13T05:06:03;9.07;;;4.90;;
3769;SDS011;1900;48.890;9.190;2022-09-13T05:08:30;6.43;;;4.73;;
3769;SDS011;1900;48.890;9.190;2022-09-13T05:10:56;7.10;;;5.03;;
3769;SDS011;1900;48.890;9.190;2022-09-13T05:13:23;15.80;;;4.67;;
3769;SDS011;1900;48.890;9.190;2022-09-13T05:15:49;6.37;;;4.37;;
3769;SDS011;1900;48.890;9.190;2022-09-13T05:18:18;7.00;;;4.63;;
3769;SDS011;1900;48.890;9.190;2022-09-13T05:20:44;10.70;;;6.23;;
3769;SDS011;1900;48.890;9.190;2022-09-13T05:23:09;7.27;;;5.10;;
3769;SDS011;1900;48.890;9.190;2022-09-13T05:25:35;5.83;;;4.40;;
3769;SDS011;1900;48.890;9.190;2022-09-13T05:28:01;10.13;;;5.20;;
3769;SDS011;1900;48.890;9.190;2022-09-13T05:30:26;11.13;;;4.67;;
3769;SDS011;1900;48.890;9.190;2022-09-13T05:32:52;5.77;;;4.83;;
3769;SDS011;1900;48.890;9.190;2022-09-13T05:35:18;8.80;;;4.90;;
3769;SDS011;1900;48.890;9.190;2022-09-13T05:37:44;7.23;;;4.33;;
3769;SDS011;1900;48.890;9.190;2022-09-13T05:40:10;11.63;;;4.83;;
3769;SDS011;1900;48.890;9.190;2022-09-13T05:42:35;10.70;;;4.27;;
3769;SDS011;1900;48.890;9.190;2022-09-13T05:45:01;9.70;;;5.23;;
3769;SDS011;1900;48.890;9.190;2022-09-13T05:47:27;7.00;;;4.37;;
3769;SDS011;1900;48.890;9.190;2022-09-13T05:49:52;8.50;;;5.00;;
3769;SDS011;1900;48.890;9.190;2022-09-13T05:52:18;16.90;;;6.67;;
3769;SDS011;1900;48.890;9.190;2022-09-13T05:54:44;8.33;;;5.20;;
3769;SDS011;1900;48.890;9.190;2022-09-13T05:57:10;9.10;;;4.93;;
3769;SDS011;1900;48.890;9.190;2022-09-13T05:59:35;9.00;;;4.70;;
3769;SDS011;1900;48.890;9.190;2022-09-13T06:02:01;8.80;;;4.70;;
3769;SDS011;1900;48.890;9.190;2022-09-13T06:04:27;11.33;;;4.97;;
3769;SDS011;1900;48.890;9.190;2022-09-13T06:06:53;6.83;;;4.83;;
3769;SDS011;1900;48.890;9.190;2022-09-13T06:09:18;6.73;;;4.57;;
3769;SDS011;1900;48.890;9.190;2022-09-13T06:11:44;8.70;;;5.23;;
3769;SDS011;1900;48.890;9.190;2022-09-13T06:14:10;6.97;;;4.63;;
3769;SDS011;1900;48.890;9.190;2022-09-13T06:16:35;9.97;;;4.97;;
3769;SDS011;1900;48.890;9.190;2022-09-13T06:19:01;7.60;;;4.83;;
3769;SDS011;1900;48.890;9.190;2022-09-13T06:21:27;6.17;;;5.07;;
3769;SDS011;1900;48.890;9.190;2022-09-13T06:23:53;8.83;;;5.40;;
3769;SDS011;1900;48.890;9.190;2022-09-13T06:26:20;16.90;;;6.23;;
3769;SDS011;1900;48.890;9.190;2022-09-13T06:28:47;10.77;;;5.70;;
3769;SDS011;1900;48.890;9.190;2022-09-13T06:31:15;6.37;;;4.70;;
3769;SDS011;1900;48.890;9.190;2022-09-13T06:33:42;11.27;;;7.23;;
3769;SDS011;1900;48.890;9.190;2022-09-13T06:36:09;13.10;;;5.50;;
3769;SDS011;1900;48.890;9.190;2022-09-13T06:38:38;14.00;;;4.83;;
3769;SDS011;1900;48.890;9.190;2022-09-13T06:41:05;8.70;;;5.20;;
3769;SDS011;1900;48.890;9.190;2022-09-13T06:43:35;10.80;;;5.20;;
3769;SDS011;1900;48.890;9.190;2022-09-13T06:46:02;7.60;;;4.50;;
3769;SDS011;1900;48.890;9.190;2022-09-13T06:48:36;6.20;;;4.70;;
3769;SDS011;1900;48.890;9.190;2022-09-13T06:51:05;12.93;;;5.60;;
3769;SDS011;1900;48.890;9.190;2022-09-13T06:53:33;10.60;;;5.43;;
3769;SDS011;1900;48.890;9.190;2022-09-13T06:56:04;11.20;;;6.37;;
3769;SDS011;1900;48.890;9.190;2022-09-13T06:58:42;14.73;;;7.30;;
3769;SDS011;1900;48.890;9.190;2022-09-13T07:01:13;11.33;;;5.70;;
3769;SDS011;1900;48.890;9.190;2022-09-13T07:03:44;10.17;;;5.90;;
3769;SDS011;1900;48.890;9.190;2022-09-13T07:06:19;16.33;;;4.73;;
3769;SDS011;1900;48.890;9.190;2022-09-13T07:08:45;8.67;;;6.03;;
3769;SDS011;1900;48.890;9.190;2022-09-13T07:11:13;8.17;;;5.63;;
3769;SDS011;1900;48.890;9.190;2022-09-13T07:13:46;7.93;;;5.70;;
3769;SDS011;1900;48.890;9.190;2022-09-13T07:16:16;12.37;;;5.70;;
3769;SDS011;1900;48.890;9.190;2022-09-13T07:18:42;8.50;;;5.20;;
3769;SDS011;1900;48.890;9.190;2022-09-13T07:21:08;14.10;;;5.43;;
3769;SDS011;1900;48.890;9.190;2022-09-13T07:23:36;9.40;;;5.17;;
3769;SDS011;1900;48.890;9.190;2022-09-13T07:26:04;11.40;;;5.90;;
3769;SDS011;1900;48.890;9.190;2022-09-13T07:28:34;14.97;;;5.83;;
3769;SDS011;1900;48.890;9.190;2022-09-13T07:33:35;12.63;;;5.10;;
3769;SDS011;1900;48.890;9.190;2022-09-13T07:36:02;5.63;;;4.57;;
3769;SDS011;1900;48.890;9.190;2022-09-13T07:38:34;7.37;;;5.40;;
3769;SDS011;1900;48.890;9.190;2022-09-13T07:41:00;9.90;;;5.20;;
3769;SDS011;1900;48.890;9.190;2022-09-13T07:43:27;5.47;;;4.07;;
3769;SDS011;1900;48.890;9.190;2022-09-13T07:45:56;10.30;;;5.27;;
3769;SDS011;1900;48.890;9.190;2022-09-13T07:48:24;9.33;;;4.30;;
3769;SDS011;1900;48.890;9.190;2022-09-13T07:50:58;8.67;;;4.70;;
3769;SDS011;1900;48.890;9.190;2022-09-13T07:53:26;7.20;;;4.07;;
3769;SDS011;1900;48.890;9.190;2022-09-13T07:55:52;7.37;;;4.10;;
3769;SDS011;1900;48.890;9.190;2022-09-13T07:58:18;7.87;;;4.90;;
3769;SDS011;1900;48.890;9.190;2022-09-13T08:00:44;5.63;;;4.37;;
3769;SDS011;1900;48.890;9.190;2022-09-13T08:03:10;9.37;;;3.90;;
3769;SDS011;1900;48.890;9.190;2022-09-13T08:05:40;6.97;;;3.70;;
3769;SDS011;1900;48.890;9.190;2022-09-13T08:08:06;8.20;;;4.17;;
3769;SDS011;1900;48.890;9.190;2022-09-13T08:10:32;6.60;;;3.97;;
3769;SDS011;1900;48.890;9.190;2022-09-13T08:12:59;7.10;;;3.80;;
3769;SDS011;1900;48.890;9.190;2022-09-13T08:15:25;9.70;;;4.23;;
3769;SDS011;1900;48.890;9.190;2022-09-13T08:17:52;6.83;;;5.33;;
3769;SDS011;1900;48.890;9.190;2022-09-13T08:20:20;10.23;;;6.73;;
3769;SDS011;1900;48.890;9.190;2022-09-13T08:22:47;3.90;;;3.20;;
3769;SDS011;1900;48.890;9.190;2022-09-13T08:25:12;3.67;;;3.37;;
3769;SDS011;1900;48.890;9.190;2022-09-13T08:27:38;6.00;;;3.53;;
3769;SDS011;1900;48.890;9.190;2022-09-13T08:30:04;6.90;;;3.50;;
3769;SDS011;1900;48.890;9.190;2022-09-13T08:32:30;3.73;;;2.93;;
3769;SDS011;1900;48.890;9.190;2022-09-13T08:34:55;10.43;;;3.50;;
3769;SDS011;1900;48.890;9.190;2022-09-13T08:37:22;3.20;;;2.90;;
3769;SDS011;1900;48.890;9.190;2022-09-13T08:39:48;8.30;;;3.20;;
3769;SDS011;1900;48.890;9.190;2022-09-13T08:45:15;5.20;;;2.73;;
3769;SDS011;1900;48.890;9.190;2022-09-13T08:47:49;10.07;;;7.60;;
3769;SDS011;1900;48.890;9.190;2022-09-13T08:50:21;21.07;;;11.37;;
3769;SDS011;1900;48.890;9.190;2022-09-13T08:58:38;3.17;;;2.73;;
3769;SDS011;1900;48.890;9.190;2022-09-13T09:04:23;5.00;;;3.50;;
3769;SDS011;1900;48.890;9.190;2022-09-13T09:09:36;6.50;;;3.30;;
3769;SDS011;1900;48.890;9.190;2022-09-13T09:20:53;6.30;;;3.17;;
3769;SDS011;1900;48.890;9.190;2022-09-13T09:38:30;5.90;;;2.73;;
3769;SDS011;1900;48.890;9.190;2022-09-13T09:41:04;11.60;;;2.80;;
3769;SDS011;1900;48.890;9.190;2022-09-13T09:43:58;3.00;;;2.40;;
3769;SDS011;1900;48.890;9.190;2022-09-13T09:46:40;3.27;;;2.47;;
3769;SDS011;1900;48.890;9.190;2022-09-13T09:49:21;4.10;;;2.20;;
3769;SDS011;1900;48.890;9.190;2022-09-13T09:52:25;4.53;;;2.60;;
3769;SDS011;1900;48.890;9.190;2022-09-13T09:54:58;8.20;;;2.47;;
3769;SDS011;1900;48.890;9.190;2022-09-13T10:00:50;3.40;;;2.70;;
3769;SDS011;1900;48.890;9.190;2022-09-13T10:03:23;2.60;;;2.37;;
3769;SDS011;1900;48.890;9.190;2022-09-13T10:06:03;3.43;;;2.07;;
3769;SDS011;1900;48.890;9.190;2022-09-13T10:08:30;4.30;;;2.40;;
3769;SDS011;1900;48.890;9.190;2022-09-13T10:10:58;3.93;;;2.67;;
3769;SDS011;1900;48.890;9.190;2022-09-13T10:13:26;5.50;;;2.87;;
3769;SDS011;1900;48.890;9.190;2022-09-13T10:15:54;3.53;;;2.20;;
3769;SDS011;1900;48.890;9.190;2022-09-13T10:18:25;6.60;;;2.40;;
3769;SDS011;1900;48.890;9.190;2022-09-13T10:23:27;2.43;;;2.17;;
3769;SDS011;1900;48.890;9.190;2022-09-13T10:25:55;3.40;;;2.00;;
3769;SDS011;1900;48.890;9.190;2022-09-13T10:28:21;3.07;;;1.73;;
3769;SDS011;1900;48.890;9.190;2022-09-13T10:30:52;2.40;;;1.90;;
3769;SDS011;1900;48.890;9.190;2022-09-13T10:33:26;8.67;;;2.27;;
3769;SDS011;1900;48.890;9.190;2022-09-13T10:36:00;2.40;;;2.20;;
3769;SDS011;1900;48.890;9.190;2022-09-13T10:38:30;5.33;;;2.20;;
3769;SDS011;1900;48.890;9.190;2022-09-13T10:40:59;8.00;;;2.27;;
3769;SDS011;1900;48.890;9.190;2022-09-13T10:43:29;3.70;;;1.90;;
3769;SDS011;1900;48.890;9.190;2022-09-13T10:45:57;2.93;;;1.93;;
3769;SDS011;1900;48.890;9.190;2022-09-13T10:48:24;3.37;;;1.53;;
3769;SDS011;1900;48.890;9.190;2022-09-13T10:56:32;2.33;;;1.90;;
3769;SDS011;1900;48.890;9.190;2022-09-13T10:59:19;2.80;;;1.50;;
3769;SDS011;1900;48.890;9.190;2022-09-13T11:02:04;1.93;;;1.73;;
3769;SDS011;1900;48.890;9.190;2022-09-13T11:07:49;2.87;;;2.57;;
3769;SDS011;1900;48.890;9.190;2022-09-13T11:16:17;7.63;;;2.20;;
3769;SDS011;1900;48.890;9.190;2022-09-13T11:32:40;4.57;;;1.50;;
3769;SDS011;1900;48.890;9.190;2022-09-13T11:39:01;1.60;;;1.50;;
3769;SDS011;1900;48.890;9.190;2022-09-13T11:57:48;1.53;;;1.43;;
3769;SDS011;1900;48.890;9.190;2022-09-13T12:00:41;2.90;;;1.30;;
3769;SDS011;1900;48.890;9.190;2022-09-13T12:06:18;1.47;;;1.37;;
3769;SDS011;1900;48.890;9.190;2022-09-13T12:08:55;8.87;;;2.20;;
3769;SDS011;1900;48.890;9.190;2022-09-13T12:11:41;1.60;;;1.43;;
3769;SDS011;1900;48.890;9.190;2022-09-13T12:14:14;2.57;;;1.20;;
3769;SDS011;1900;48.890;9.190;2022-09-13T12:21:56;2.37;;;1.30;;
3769;SDS011;1900;48.890;9.190;2022-09-13T12:24:38;1.20;;;1.10;;
3769;SDS011;1900;48.890;9.190;2022-09-13T12:27:18;1.57;;;1.23;;
3769;SDS011;1900;48.890;9.190;2022-09-13T12:29:52;2.40;;;1.50;;
3769;SDS011;1900;48.890;9.190;2022-09-13T12:32:39;4.30;;;3.90;;
3769;SDS011;1900;48.890;9.190;2022-09-13T12:40:39;4.70;;;1.43;;
3769;SDS011;1900;48.890;9.190;2022-09-13T12:54:21;4.23;;;1.73;;
3769;SDS011;1900;48.890;9.190;2022-09-13T13:02:51;2.00;;;1.30;;
3769;SDS011;1900;48.890;9.190;2022-09-13T13:05:35;3.27;;;2.90;;
3769;SDS011;1900;48.890;9.190;2022-09-13T13:10:44;1.33;;;1.23;;
3769;SDS011;1900;48.890;9.190;2022-09-13T13:13:32;1.83;;;1.37;;
3769;SDS011;1900;48.890;9.190;2022-09-13T13:16:23;1.23;;;1.00;;
3769;SDS011;1900;48.890;9.190;2022-09-13T13:18:50;1.23;;;1.10;;
3769;SDS011;1900;48.890;9.190;2022-09-13T13:21:26;1.97;;;1.10;;
3769;SDS011;1900;48.890;9.190;2022-09-13T13:36:53;1.50;;;1.33;;
3769;SDS011;1900;48.890;9.190;2022-09-13T13:41:56;1.70;;;1.53;;
3769;SDS011;1900;48.890;9.190;2022-09-13T13:46:51;1.47;;;1.27;;
3769;SDS011;1900;48.890;9.190;2022-09-13T14:05:26;4.43;;;1.20;;
3769;SDS011;1900;48.890;9.190;2022-09-13T14:16:08;2.03;;;1.30;;
3769;SDS011;1900;48.890;9.190;2022-09-13T14:21:31;3.00;;;1.20;;
3769;SDS011;1900;48.890;9.190;2022-09-13T14:26:48;1.40;;;1.30;;
3769;SDS011;1900;48.890;9.190;2022-09-13T14:29:17;1.57;;;0.97;;
3769;SDS011;1900;48.890;9.190;2022-09-13T14:31:45;1.37;;;1.00;;
3769;SDS011;1900;48.890;9.190;2022-09-13T14:34:20;2.83;;;1.40;;
3769;SDS011;1900;48.890;9.190;2022-09-13T14:36:51;4.73;;;1.30;;
3769;SDS011;1900;48.890;9.190;2022-09-13T14:39:18;6.40;;;1.30;;
3769;SDS011;1900;48.890;9.190;2022-09-13T14:41:44;1.10;;;1.00;;
3769;SDS011;1900;48.890;9.190;2022-09-13T14:44:14;2.40;;;0.90;;
3769;SDS011;1900;48.890;9.190;2022-09-13T14:46:42;1.90;;;1.00;;
3769;SDS011;1900;48.890;9.190;2022-09-13T14:49:14;6.20;;;1.00;;
3769;SDS011;1900;48.890;9.190;2022-09-13T14:51:55;1.80;;;1.10;;
3769;SDS011;1900;48.890;9.190;2022-09-13T14:54:30;1.57;;;1.23;;
3769;SDS011;1900;48.890;9.190;2022-09-13T14:56:59;1.83;;;1.10;;
3769;SDS011;1900;48.890;9.190;2022-09-13T15:01:52;2.17;;;1.30;;
3769;SDS011;1900;48.890;9.190;2022-09-13T15:04:17;3.63;;;1.83;;
3769;SDS011;1900;48.890;9.190;2022-09-13T15:06:44;3.13;;;1.40;;
3769;SDS011;1900;48.890;9.190;2022-09-13T15:11:38;3.97;;;1.33;;
3769;SDS011;1900;48.890;9.190;2022-09-13T15:14:28;3.10;;;1.53;;
3769;SDS011;1900;48.890;9.190;2022-09-13T15:24:59;2.10;;;1.90;;
3769;SDS011;1900;48.890;9.190;2022-09-13T15:27:27;4.10;;;2.93;;
3769;SDS011;1900;48.890;9.190;2022-09-13T15:35:30;2.90;;;2.17;;
3769;SDS011;1900;48.890;9.190;2022-09-13T15:38:01;4.13;;;2.20;;
3769;SDS011;1900;48.890;9.190;2022-09-13T15:43:27;3.60;;;2.23;;
3769;SDS011;1900;48.890;9.190;2022-09-13T15:45:55;2.97;;;2.67;;
3769;SDS011;1900;48.890;9.190;2022-09-13T15:48:23;8.73;;;6.60;;
3769;SDS011;1900;48.890;9.190;2022-09-13T15:53:33;5.90;;;2.10;;
3769;SDS011;1900;48.890;9.190;2022-09-13T15:56:00;4.13;;;1.87;;
3769;SDS011;1900;48.890;9.190;2022-09-13T15:58:26;3.33;;;1.60;;
3769;SDS011;1900;48.890;9.190;2022-09-13T16:00:52;4.67;;;2.20;;
3769;SDS011;1900;48.890;9.190;2022-09-13T16:03:17;3.33;;;1.73;;
3769;SDS011;1900;48.890;9.190;2022-09-13T16:05:43;3.80;;;1.90;;
3769;SDS011;1900;48.890;9.190;2022-09-13T16:08:10;3.73;;;1.97;;
3769;SDS011;1900;48.890;9.190;2022-09-13T16:10:36;5.17;;;1.83;;
3769;SDS011;1900;48.890;9.190;2022-09-13T16:13:02;1.83;;;1.63;;
3769;SDS011;1900;48.890;9.190;2022-09-13T16:15:28;2.03;;;1.50;;
3769;SDS011;1900;48.890;9.190;2022-09-13T16:17:54;4.10;;;1.50;;
3769;SDS011;1900;48.890;9.190;2022-09-13T16:20:19;2.33;;;2.10;;
3769;SDS011;1900;48.890;9.190;2022-09-13T16:22:45;4.73;;;1.70;;
3769;SDS011;1900;48.890;9.190;2022-09-13T16:25:11;1.60;;;1.10;;
3769;SDS011;1900;48.890;9.190;2022-09-13T16:27:38;1.47;;;1.30;;
3769;SDS011;1900;48.890;9.190;2022-09-13T16:30:05;1.57;;;1.37;;
3769;SDS011;1900;48.890;9.190;2022-09-13T16:32:31;3.20;;;1.43;;
3769;SDS011;1900;48.890;9.190;2022-09-13T16:34:57;2.60;;;2.33;;
3769;SDS011;1900;48.890;9.190;2022-09-13T16:37:23;2.97;;;1.97;;
3769;SDS011;1900;48.890;9.190;2022-09-13T16:39:48;2.80;;;1.60;;
3769;SDS011;1900;48.890;9.190;2022-09-13T16:42:15;3.13;;;1.47;;
3769;SDS011;1900;48.890;9.190;2022-09-13T16:44:44;8.10;;;1.47;;
3769;SDS011;1900;48.890;9.190;2022-09-13T16:47:10;5.23;;;1.57;;
3769;SDS011;1900;48.890;9.190;2022-09-13T16:49:36;1.63;;;1.50;;
3769;SDS011;1900;48.890;9.190;2022-09-13T16:52:01;2.87;;;1.73;;
3769;SDS011;1900;48.890;9.190;2022-09-13T16:54:27;3.53;;;1.90;;
3769;SDS011;1900;48.890;9.190;2022-09-13T16:56:59;15.73;;;1.97;;
3769;SDS011;1900;48.890;9.190;2022-09-13T16:59:25;2.40;;;1.70;;
3769;SDS011;1900;48.890;9.190;2022-09-13T17:01:51;4.67;;;2.10;;
3769;SDS011;1900;48.890;9.190;2022-09-13T17:04:17;5.13;;;1.60;;
3769;SDS011;1900;48.890;9.190;2022-09-13T17:06:43;3.83;;;1.93;;
3769;SDS011;1900;48.890;9.190;2022-09-13T17:09:09;3.30;;;1.60;;
3769;SDS011;1900;48.890;9.190;2022-09-13T17:11:36;3.60;;;2.63;;
3769;SDS011;1900;48.890;9.190;2022-09-13T17:14:06;4.77;;;3.70;;
3769;SDS011;1900;48.890;9.190;2022-09-13T17:16:37;4.13;;;3.20;;
3769;SDS011;1900;48.890;9.190;2022-09-13T17:19:10;3.53;;;3.23;;
3769;SDS011;1900;48.890;9.190;2022-09-13T17:21:42;3.10;;;2.60;;
3769;SDS011;1900;48.890;9.190;2022-09-13T17:24:08;4.07;;;2.70;;
3769;SDS011;1900;48.890;9.190;2022-09-13T17:26:34;2.60;;;2.40;;
3769;SDS011;1900;48.890;9.190;2022-09-13T17:29:00;5.03;;;2.80;;
3769;SDS011;1900;48.890;9.190;2022-09-13T17:31:26;5.33;;;2.67;;
3769;SDS011;1900;48.890;9.190;2022-09-13T17:33:52;4.90;;;2.63;;
3769;SDS011;1900;48.890;9.190;2022-09-13T17:36:19;11.43;;;3.00;;
3769;SDS011;1900;48.890;9.190;2022-09-13T17:38:45;5.07;;;3.23;;
3769;SDS011;1900;48.890;9.190;2022-09-13T17:41:12;4.70;;;3.00;;
3769;SDS011;1900;48.890;9.190;2022-09-13T17:43:42;4.93;;;2.77;;
3769;SDS011;1900;48.890;9.190;2022-09-13T17:46:16;3.20;;;2.57;;
3769;SDS011;1900;48.890;9.190;2022-09-13T17:48:50;4.33;;;3.33;;
3769;SDS011;1900;48.890;9.190;2022-09-13T17:51:18;7.60;;;3.00;;
3769;SDS011;1900;48.890;9.190;2022-09-13T17:53:46;2.97;;;2.30;;
3769;SDS011;1900;48.890;9.190;2022-09-13T17:56:17;7.37;;;2.97;;
3769;SDS011;1900;48.890;9.190;2022-09-13T17:58:44;7.50;;;3.10;;
3769;SDS011;1900;48.890;9.190;2022-09-13T18:01:10;5.00;;;3.10;;
3769;SDS011;1900;48.890;9.190;2022-09-13T18:03:36;4.40;;;2.20;;
3769;SDS011;1900;48.890;9.190;2022-09-13T18:06:04;4.07;;;2.60;;
3769;SDS011;1900;48.890;9.190;2022-09-13T18:08:32;5.67;;;2.50;;
3769;SDS011;1900;48.890;9.190;2022-09-13T18:11:01;4.83;;;2.70;;
3769;SDS011;1900;48.890;9.190;2022-09-13T18:13:28;4.03;;;3.17;;
3769;SDS011;1900;48.890;9.190;2022-09-13T18:16:12;7.23;;;2.73;;
3769;SDS011;1900;48.890;9.190;2022-09-13T18:18:42;3.40;;;2.87;;
3769;SDS011;1900;48.890;9.190;2022-09-13T18:21:12;3.10;;;2.47;;
3769;SDS011;1900;48.890;9.190;2022-09-13T18:23:38;3.50;;;2.57;;
3769;SDS011;1900;48.890;9.190;2022-09-13T18:26:06;4.50;;;3.00;;
3769;SDS011;1900;48.890;9.190;2022-09-13T18:28:34;3.40;;;2.87;;
3769;SDS011;1900;48.890;9.190;2022-09-13T18:31:01;2.80;;;2.50;;
3769;SDS011;1900;48.890;9.190;2022-09-13T18:33:30;4.47;;;2.43;;
3769;SDS011;1900;48.890;9.190;2022-09-13T18:38:27;5.50;;;2.30;;
3769;SDS011;1900;48.890;9.190;2022-09-13T18:41:00;4.13;;;3.03;;
3769;SDS011;1900;48.890;9.190;2022-09-13T18:43:31;8.63;;;3.60;;
3769;SDS011;1900;48.890;9.190;2022-09-13T18:45:59;4.60;;;3.40;;
3769;SDS011;1900;48.890;9.190;2022-09-13T18:48:29;10.30;;;3.00;;
3769;SDS011;1900;48.890;9.190;2022-09-13T18:50:56;7.10;;;2.53;;
3769;SDS011;1900;48.890;9.190;2022-09-13T18:53:22;6.63;;;2.60;;
3769;SDS011;1900;48.890;9.190;2022-09-13T18:55:48;3.13;;;2.40;;
3769;SDS011;1900;48.890;9.190;2022-09-13T18:58:14;5.90;;;2.20;;
3769;SDS011;1900;48.890;9.190;2022-09-13T19:00:39;4.47;;;2.43;;
3769;SDS011;1900;48.890;9.190;2022-09-13T19:03:07;3.70;;;2.30;;
3769;SDS011;1900;48.890;9.190;2022-09-13T19:05:33;6.63;;;2.47;;
3769;SDS011;1900;48.890;9.190;2022-09-13T19:08:07;4.83;;;3.20;;
3769;SDS011;1900;48.890;9.190;2022-09-13T19:10:34;5.00;;;3.80;;
3769;SDS011;1900;48.890;9.190;2022-09-13T19:13:00;4.83;;;3.27;;
3769;SDS011;1900;48.890;9.190;2022-09-13T19:15:26;3.10;;;2.43;;
3769;SDS011;1900;48.890;9.190;2022-09-13T19:17:52;3.30;;;2.70;;
3769;SDS011;1900;48.890;9.190;2022-09-13T19:20:17;3.50;;;2.60;;
3769;SDS011;1900;48.890;9.190;2022-09-13T19:22:45;3.67;;;2.60;;
3769;SDS011;1900;48.890;9.190;2022-09-13T19:25:10;6.00;;;4.00;;
3769;SDS011;1900;48.890;9.190;2022-09-13T19:27:36;6.97;;;2.93;;
3769;SDS011;1900;48.890;9.190;2022-09-13T19:30:02;8.37;;;3.43;;
3769;SDS011;1900;48.890;9.190;2022-09-13T19:32:28;5.43;;;2.53;;
3769;SDS011;1900;48.890;9.190;2022-09-13T19:34:54;3.77;;;2.50;;
3769;SDS011;1900;48.890;9.190;2022-09-13T19:37:19;3.50;;;2.53;;
3769;SDS011;1900;48.890;9.190;2022-09-13T19:39:45;4.67;;;3.17;;
3769;SDS011;1900;48.890;9.190;2022-09-13T19:42:11;3.47;;;2.30;;
3769;SDS011;1900;48.890;9.190;2022-09-13T19:44:37;3.20;;;2.90;;
3769;SDS011;1900;48.890;9.190;2022-09-13T19:47:02;2.97;;;2.17;;
3769;SDS011;1900;48.890;9.190;2022-09-13T19:49:29;3.00;;;2.37;;
3769;SDS011;1900;48.890;9.190;2022-09-13T19:51:55;3.47;;;2.50;;
3769;SDS011;1900;48.890;9.190;2022-09-13T19:54:21;9.73;;;2.50;;